sensor_id;sensor_type;location;lat;lon;timestamp;pressure;altitude;pressure_sealevel;temperature;humidity
22181;BME280;11256;50.830;12.834;2023-04-25T00:02:13;96779.06;;;11.51;53.52
22181;BME280;11256;50.830;12.834;2023-04-25T00:07:15;96774.25;;;11.48;53.37
22181;BME280;11256;50.830;12.834;2023-04-25T00:12:15;96777.19;;;11.38;53.48
22181;BME280;11256;50.830;12.834;2023-04-25T00:17:16;96779.84;;;11.29;53.51
22181;BME280;11256;50.830;12.834;2023-04-25T00:22:16;96774.88;;;11.23;53.66
22181;BME280;11256;50.830;12.834;2023-04-25T00:27:17;96769.03;;;11.16;53.74
22181;BME280;11256;50.830;12.834;2023-04-25T00:32:17;96772.69;;;11.11;53.91
22181;BME280;11256;50.830;12.834;2023-04-25T00:37:19;96761.88;;;10.98;53.85
22181;BME280;11256;50.830;12.834;2023-04-25T00:42:19;96767.41;;;10.93;53.93
22181;BME280;11256;50.830;12.834;2023-04-25T00:47:21;96772.75;;;10.84;54.32
22181;BME280;11256;50.830;12.834;2023-04-25T00:52:22;96751.72;;;10.68;53.97
22181;BME280;11256;50.830;12.834;2023-04-25T00:57:23;96760.44;;;10.65;54.13
22181;BME280;11256;50.830;12.834;2023-04-25T01:02:23;96757.94;;;10.55;54.40
22181;BME280;11256;50.830;12.834;2023-04-25T01:07:24;96758.66;;;10.47;54.49
22181;BME280;11256;50.830;12.834;2023-04-25T01:12:25;96747.84;;;10.47;54.76
22181;BME280;11256;50.830;12.834;2023-04-25T01:17:27;96740.59;;;10.29;54.64
22181;BME280;11256;50.830;12.834;2023-04-25T01:22:28;96748.72;;;10.29;54.89
22181;BME280;11256;50.830;12.834;2023-04-25T01:27:28;96742.31;;;10.25;54.80
22181;BME280;11256;50.830;12.834;2023-04-25T01:32:30;96720.97;;;10.10;55.24
22181;BME280;11256;50.830;12.834;2023-04-25T01:37:42;96733.28;;;10.16;54.97
22181;BME280;11256;50.830;12.834;2023-04-25T01:42:45;96746.25;;;10.19;54.82
22181;BME280;11256;50.830;12.834;2023-04-25T01:47:46;96732.59;;;10.10;54.97
22181;BME280;11256;50.830;12.834;2023-04-25T01:52:50;96745.22;;;10.15;55.23
22181;BME280;11256;50.830;12.834;2023-04-25T01:57:53;96742.81;;;10.13;55.37
22181;BME280;11256;50.830;12.834;2023-04-25T02:02:59;96736.59;;;10.13;55.27
22181;BME280;11256;50.830;12.834;2023-04-25T02:08:07;96733.28;;;10.16;54.83
22181;BME280;11256;50.830;12.834;2023-04-25T02:13:08;96743.63;;;10.14;54.93
22181;BME280;11256;50.830;12.834;2023-04-25T02:18:16;96734.06;;;10.03;55.38
22181;BME280;11256;50.830;12.834;2023-04-25T02:23:17;96742.31;;;10.11;55.58
22181;BME280;11256;50.830;12.834;2023-04-25T02:28:19;96743.22;;;10.07;55.44
22181;BME280;11256;50.830;12.834;2023-04-25T02:33:19;96727.03;;;10.02;55.69
22181;BME280;11256;50.830;12.834;2023-04-25T02:38:21;96724.03;;;10.03;55.82
22181;BME280;11256;50.830;12.834;2023-04-25T02:43:21;96723.19;;;10.08;55.67
22181;BME280;11256;50.830;12.834;2023-04-25T02:48:22;96721.06;;;10.05;55.79
22181;BME280;11256;50.830;12.834;2023-04-25T02:53:22;96723.69;;;10.10;55.82
22181;BME280;11256;50.830;12.834;2023-04-25T02:58:26;96720.47;;;10.08;55.62
22181;BME280;11256;50.830;12.834;2023-04-25T03:03:27;96718.84;;;10.07;56.14
22181;BME280;11256;50.830;12.834;2023-04-25T03:08:27;96712.66;;;10.06;56.23
22181;BME280;11256;50.830;12.834;2023-04-25T03:13:33;96713.44;;;10.07;56.05
22181;BME280;11256;50.830;12.834;2023-04-25T03:18:34;96711.25;;;10.09;56.16
22181;BME280;11256;50.830;12.834;2023-04-25T03:23:34;96711.06;;;10.05;56.44
22181;BME280;11256;50.830;12.834;2023-04-25T03:28:34;96710.44;;;10.08;56.59
22181;BME280;11256;50.830;12.834;2023-04-25T03:33:35;96713.13;;;10.08;56.17
22181;BME280;11256;50.830;12.834;2023-04-25T03:38:35;96714.25;;;10.07;56.32
22181;BME280;11256;50.830;12.834;2023-04-25T03:43:37;96709.66;;;10.08;56.67
22181;BME280;11256;50.830;12.834;2023-04-25T03:48:42;96689.97;;;10.02;56.65
22181;BME280;11256;50.830;12.834;2023-04-25T03:53:45;96705.63;;;10.05;56.58
22181;BME280;11256;50.830;12.834;2023-04-25T03:59:04;96717.53;;;10.18;56.63
22181;BME280;11256;50.830;12.834;2023-04-25T04:04:05;96704.00;;;10.04;56.88
22181;BME280;11256;50.830;12.834;2023-04-25T04:09:05;96710.25;;;10.05;56.85
22181;BME280;11256;50.830;12.834;2023-04-25T04:14:11;96709.53;;;9.99;56.97
22181;BME280;11256;50.830;12.834;2023-04-25T04:19:14;96723.69;;;10.10;57.03
22181;BME280;11256;50.830;12.834;2023-04-25T04:24:20;96701.91;;;10.01;56.90
22181;BME280;11256;50.830;12.834;2023-04-25T04:29:29;96711.59;;;10.02;56.69
22181;BME280;11256;50.830;12.834;2023-04-25T04:34:34;96734.22;;;10.11;56.69
22181;BME280;11256;50.830;12.834;2023-04-25T04:39:35;96724.03;;;10.03;57.19
22181;BME280;11256;50.830;12.834;2023-04-25T04:44:52;96729.09;;;10.10;56.90
22181;BME280;11256;50.830;12.834;2023-04-25T04:50:14;96738.91;;;10.19;56.67
22181;BME280;11256;50.830;12.834;2023-04-25T04:55:36;96747.94;;;10.15;56.75
22181;BME280;11256;50.830;12.834;2023-04-25T05:00:42;96737.50;;;10.08;56.60
22181;BME280;11256;50.830;12.834;2023-04-25T05:06:00;96749.03;;;10.14;57.22
22181;BME280;11256;50.830;12.834;2023-04-25T05:11:10;96737.31;;;10.18;57.33
22181;BME280;11256;50.830;12.834;2023-04-25T05:16:22;96742.53;;;10.42;58.89
22181;BME280;11256;50.830;12.834;2023-04-25T05:21:31;96748.53;;;10.88;58.21
22181;BME280;11256;50.830;12.834;2023-04-25T05:26:57;96740.69;;;11.22;57.82
22181;BME280;11256;50.830;12.834;2023-04-25T05:32:18;96747.81;;;11.53;56.75
22181;BME280;11256;50.830;12.834;2023-04-25T05:37:20;96752.31;;;11.80;56.73
22181;BME280;11256;50.830;12.834;2023-04-25T05:42:29;96750.16;;;11.90;55.78
22181;BME280;11256;50.830;12.834;2023-04-25T05:47:55;96739.25;;;11.82;55.21
22181;BME280;11256;50.830;12.834;2023-04-25T05:53:04;96752.47;;;11.83;54.58
22181;BME280;11256;50.830;12.834;2023-04-25T05:58:28;96754.66;;;11.73;54.70
22181;BME280;11256;50.830;12.834;2023-04-25T06:03:30;96762.44;;;11.66;54.79
22181;BME280;11256;50.830;12.834;2023-04-25T06:08:32;96762.66;;;11.56;54.30
22181;BME280;11256;50.830;12.834;2023-04-25T06:13:33;96766.00;;;11.53;54.47
22181;BME280;11256;50.830;12.834;2023-04-25T06:18:33;96762.09;;;11.45;54.46
22181;BME280;11256;50.830;12.834;2023-04-25T06:23:33;96769.44;;;11.45;54.14
22181;BME280;11256;50.830;12.834;2023-04-25T06:28:40;96764.56;;;11.33;54.01
22181;BME280;11256;50.830;12.834;2023-04-25T06:33:40;96770.81;;;11.34;53.94
22181;BME280;11256;50.830;12.834;2023-04-25T06:38:41;96782.44;;;11.34;54.35
22181;BME280;11256;50.830;12.834;2023-04-25T06:43:42;96774.63;;;11.33;54.24
22181;BME280;11256;50.830;12.834;2023-04-25T06:49:05;96785.59;;;11.28;54.28
22181;BME280;11256;50.830;12.834;2023-04-25T06:54:07;96789.28;;;11.32;54.61
22181;BME280;11256;50.830;12.834;2023-04-25T06:59:17;96794.34;;;11.25;53.93
22181;BME280;11256;50.830;12.834;2023-04-25T07:04:19;96793.09;;;11.31;53.85
22181;BME280;11256;50.830;12.834;2023-04-25T07:09:25;96793.72;;;11.28;53.62
22181;BME280;11256;50.830;12.834;2023-04-25T07:14:26;96800.13;;;11.32;54.05
22181;BME280;11256;50.830;12.834;2023-04-25T07:19:27;96804.09;;;11.48;53.95
22181;BME280;11256;50.830;12.834;2023-04-25T07:24:31;96775.56;;;11.72;53.58
22181;BME280;11256;50.830;12.834;2023-04-25T07:29:31;96794.16;;;12.09;52.12
22181;BME280;11256;50.830;12.834;2023-04-25T07:34:34;96810.56;;;12.35;51.97
22181;BME280;11256;50.830;12.834;2023-04-25T07:39:37;96816.81;;;12.35;50.47
22181;BME280;11256;50.830;12.834;2023-04-25T07:44:38;96816.81;;;12.35;50.03
22181;BME280;11256;50.830;12.834;2023-04-25T07:49:42;96799.00;;;12.21;50.19
22181;BME280;11256;50.830;12.834;2023-04-25T07:54:42;96805.41;;;12.25;50.96
22181;BME280;11256;50.830;12.834;2023-04-25T07:59:50;96813.59;;;12.72;52.18
22181;BME280;11256;50.830;12.834;2023-04-25T08:04:50;96831.66;;;13.33;50.10
22181;BME280;11256;50.830;12.834;2023-04-25T08:09:52;96824.00;;;13.60;49.25
22181;BME280;11256;50.830;12.834;2023-04-25T08:15:05;96830.06;;;13.74;48.30
22181;BME280;11256;50.830;12.834;2023-04-25T08:20:09;96843.69;;;13.66;48.25
22181;BME280;11256;50.830;12.834;2023-04-25T08:25:11;96838.41;;;13.44;48.30
22181;BME280;11256;50.830;12.834;2023-04-25T08:30:13;96840.47;;;13.30;48.47
22181;BME280;11256;50.830;12.834;2023-04-25T08:35:15;96855.28;;;13.07;48.84
22181;BME280;11256;50.830;12.834;2023-04-25T08:40:19;96849.94;;;12.85;49.25
22181;BME280;11256;50.830;12.834;2023-04-25T08:45:34;96863.69;;;12.80;49.67
22181;BME280;11256;50.830;12.834;2023-04-25T08:50:37;96870.34;;;12.74;49.89
22181;BME280;11256;50.830;12.834;2023-04-25T08:55:41;96869.41;;;12.70;50.29
22181;BME280;11256;50.830;12.834;2023-04-25T09:00:46;96866.19;;;12.68;50.75
22181;BME280;11256;50.830;12.834;2023-04-25T09:05:46;96875.47;;;12.67;50.72
22181;BME280;11256;50.830;12.834;2023-04-25T09:10:49;96881.22;;;12.74;50.75
22181;BME280;11256;50.830;12.834;2023-04-25T09:15:55;96898.66;;;12.73;50.67
22181;BME280;11256;50.830;12.834;2023-04-25T09:21:16;96901.34;;;12.64;50.54
22181;BME280;11256;50.830;12.834;2023-04-25T09:26:20;96910.09;;;12.53;50.59
22181;BME280;11256;50.830;12.834;2023-04-25T09:31:22;96912.94;;;12.48;50.92
22181;BME280;11256;50.830;12.834;2023-04-25T09:36:30;96907.91;;;12.33;51.25
22181;BME280;11256;50.830;12.834;2023-04-25T09:41:53;96926.03;;;12.46;51.43
22181;BME280;11256;50.830;12.834;2023-04-25T09:46:55;96921.34;;;12.38;51.35
22181;BME280;11256;50.830;12.834;2023-04-25T09:51:59;96907.91;;;12.33;51.59
22181;BME280;11256;50.830;12.834;2023-04-25T09:57:20;96930.56;;;12.28;51.71
22181;BME280;11256;50.830;12.834;2023-04-25T10:02:24;96919.38;;;12.30;51.61
22181;BME280;11256;50.830;12.834;2023-04-25T10:07:30;96909.13;;;12.27;52.00
22181;BME280;11256;50.830;12.834;2023-04-25T10:12:34;96926.78;;;12.38;51.94
22181;BME280;11256;50.830;12.834;2023-04-25T10:17:36;96934.94;;;12.38;52.23
22181;BME280;11256;50.830;12.834;2023-04-25T10:22:42;96937.00;;;12.41;52.14
22181;BME280;11256;50.830;12.834;2023-04-25T10:27:45;96933.06;;;12.25;52.34
22181;BME280;11256;50.830;12.834;2023-04-25T10:32:46;96949.59;;;12.28;52.32
22181;BME280;11256;50.830;12.834;2023-04-25T10:38:04;96960.63;;;12.32;52.24
22181;BME280;11256;50.830;12.834;2023-04-25T10:43:35;96972.53;;;12.22;52.69
22181;BME280;11256;50.830;12.834;2023-04-25T10:48:44;96966.97;;;12.05;52.24
22181;BME280;11256;50.830;12.834;2023-04-25T10:53:46;96982.03;;;12.11;52.49
22181;BME280;11256;50.830;12.834;2023-04-25T10:58:48;96981.84;;;12.08;52.68
22181;BME280;11256;50.830;12.834;2023-04-25T11:03:48;96962.78;;;11.86;52.53
22181;BME280;11256;50.830;12.834;2023-04-25T11:08:51;96979.97;;;11.95;52.64
22181;BME280;11256;50.830;12.834;2023-04-25T11:13:51;96991.31;;;11.97;52.23
22181;BME280;11256;50.830;12.834;2023-04-25T11:18:51;96992.81;;;12.03;53.04
22181;BME280;11256;50.830;12.834;2023-04-25T11:23:51;96980.06;;;12.03;52.61
22181;BME280;11256;50.830;12.834;2023-04-25T11:28:57;96989.31;;;12.02;52.64
22181;BME280;11256;50.830;12.834;2023-04-25T11:33:57;96995.63;;;11.98;52.70
22181;BME280;11256;50.830;12.834;2023-04-25T11:38:58;96994.56;;;11.99;52.82
22181;BME280;11256;50.830;12.834;2023-04-25T11:43:58;97014.97;;;11.96;52.90
22181;BME280;11256;50.830;12.834;2023-04-25T11:48:59;97006.22;;;11.86;53.02
22181;BME280;11256;50.830;12.834;2023-04-25T11:53:59;97010.69;;;11.82;52.69
22181;BME280;11256;50.830;12.834;2023-04-25T11:59:01;97015.09;;;11.78;52.72
22181;BME280;11256;50.830;12.834;2023-04-25T12:04:14;97012.50;;;11.73;52.87
22181;BME280;11256;50.830;12.834;2023-04-25T12:09:16;97018.50;;;11.83;52.63
22181;BME280;11256;50.830;12.834;2023-04-25T12:14:23;97022.72;;;11.76;52.55
22181;BME280;11256;50.830;12.834;2023-04-25T12:19:24;97024.38;;;11.63;52.67
22181;BME280;11256;50.830;12.834;2023-04-25T12:24:26;97037.53;;;11.70;52.53
22181;BME280;11256;50.830;12.834;2023-04-25T12:29:28;97038.25;;;11.62;52.76
22181;BME280;11256;50.830;12.834;2023-04-25T12:34:29;97045.75;;;11.65;53.26
22181;BME280;11256;50.830;12.834;2023-04-25T12:39:31;97053.28;;;11.54;53.46
22181;BME280;11256;50.830;12.834;2023-04-25T12:44:31;97056.91;;;11.50;53.47
22181;BME280;11256;50.830;12.834;2023-04-25T12:49:35;97057.03;;;11.45;54.08
22181;BME280;11256;50.830;12.834;2023-04-25T12:54:35;97056.50;;;11.43;53.48
22181;BME280;11256;50.830;12.834;2023-04-25T12:59:36;97057.13;;;11.40;54.03
22181;BME280;11256;50.830;12.834;2023-04-25T13:04:36;97043.94;;;11.33;53.64
22181;BME280;11256;50.830;12.834;2023-04-25T13:09:36;97064.34;;;11.44;53.80
22181;BME280;11256;50.830;12.834;2023-04-25T13:14:37;97062.94;;;11.47;53.90
22181;BME280;11256;50.830;12.834;2023-04-25T13:19:37;97067.25;;;11.48;54.30
22181;BME280;11256;50.830;12.834;2023-04-25T13:24:38;97050.09;;;11.39;54.05
22181;BME280;11256;50.830;12.834;2023-04-25T13:29:39;97053.69;;;11.48;54.02
22181;BME280;11256;50.830;12.834;2023-04-25T13:34:40;97068.09;;;11.62;54.12
22181;BME280;11256;50.830;12.834;2023-04-25T13:39:40;97075.41;;;11.75;54.20
22181;BME280;11256;50.830;12.834;2023-04-25T13:44:41;97067.38;;;11.83;54.21
22181;BME280;11256;50.830;12.834;2023-04-25T13:49:41;97074.00;;;11.91;54.32
22181;BME280;11256;50.830;12.834;2023-04-25T13:54:41;97059.47;;;12.09;54.53
22181;BME280;11256;50.830;12.834;2023-04-25T13:59:42;97051.63;;;12.21;54.20
22181;BME280;11256;50.830;12.834;2023-04-25T14:04:42;97068.81;;;12.52;54.24
22181;BME280;11256;50.830;12.834;2023-04-25T14:09:42;97058.34;;;12.59;53.72
22181;BME280;11256;50.830;12.834;2023-04-25T14:14:43;97058.34;;;12.59;53.74
22181;BME280;11256;50.830;12.834;2023-04-25T14:19:43;97068.56;;;12.62;53.82
22181;BME280;11256;50.830;12.834;2023-04-25T14:24:45;97060.31;;;12.67;53.50
22181;BME280;11256;50.830;12.834;2023-04-25T14:29:46;97064.25;;;12.61;52.95
22181;BME280;11256;50.830;12.834;2023-04-25T14:34:46;97100.19;;;12.58;53.30
22181;BME280;11256;50.830;12.834;2023-04-25T14:39:46;97112.94;;;12.49;53.80
22181;BME280;11256;50.830;12.834;2023-04-25T14:44:47;97110.53;;;12.34;53.44
22181;BME280;11256;50.830;12.834;2023-04-25T14:49:47;97119.44;;;12.26;53.61
22181;BME280;11256;50.830;12.834;2023-04-25T14:54:53;97129.88;;;12.19;54.42
22181;BME280;11256;50.830;12.834;2023-04-25T14:59:54;97113.94;;;12.04;54.39
22181;BME280;11256;50.830;12.834;2023-04-25T15:04:54;97133.63;;;11.96;54.20
22181;BME280;11256;50.830;12.834;2023-04-25T15:09:55;97140.56;;;11.88;54.47
22181;BME280;11256;50.830;12.834;2023-04-25T15:14:56;97116.66;;;11.77;54.09
22181;BME280;11256;50.830;12.834;2023-04-25T15:19:57;97136.53;;;11.86;54.51
22181;BME280;11256;50.830;12.834;2023-04-25T15:24:57;97141.47;;;11.84;54.82
22181;BME280;11256;50.830;12.834;2023-04-25T15:29:57;97134.84;;;11.90;55.28
22181;BME280;11256;50.830;12.834;2023-04-25T15:34:58;97132.31;;;11.93;55.85
22181;BME280;11256;50.830;12.834;2023-04-25T15:40:10;97138.47;;;11.99;55.64
22181;BME280;11256;50.830;12.834;2023-04-25T15:45:11;97120.84;;;12.10;55.96
22181;BME280;11256;50.830;12.834;2023-04-25T15:50:12;97133.31;;;12.24;55.92
22181;BME280;11256;50.830;12.834;2023-04-25T15:55:14;97142.53;;;12.50;55.93
22181;BME280;11256;50.830;12.834;2023-04-25T16:00:16;97135.66;;;12.53;55.77
22181;BME280;11256;50.830;12.834;2023-04-25T16:05:18;97149.13;;;12.58;55.37
22181;BME280;11256;50.830;12.834;2023-04-25T16:10:18;97136.38;;;12.45;55.22
22181;BME280;11256;50.830;12.834;2023-04-25T16:15:21;97138.50;;;12.48;55.05
22181;BME280;11256;50.830;12.834;2023-04-25T16:20:22;97147.13;;;12.50;54.75
22181;BME280;11256;50.830;12.834;2023-04-25T16:25:22;97155.88;;;12.47;54.64
22181;BME280;11256;50.830;12.834;2023-04-25T16:30:23;97154.19;;;12.51;54.55
22181;BME280;11256;50.830;12.834;2023-04-25T16:35:23;97168.28;;;12.53;54.13
22181;BME280;11256;50.830;12.834;2023-04-25T16:40:24;97156.44;;;12.35;54.12
22181;BME280;11256;50.830;12.834;2023-04-25T16:45:25;97166.47;;;12.35;54.14
22181;BME280;11256;50.830;12.834;2023-04-25T16:50:25;97171.34;;;12.24;53.99
22181;BME280;11256;50.830;12.834;2023-04-25T16:55:26;97172.44;;;12.23;54.17
22181;BME280;11256;50.830;12.834;2023-04-25T17:00:26;97181.00;;;12.17;53.78
22181;BME280;11256;50.830;12.834;2023-04-25T17:05:26;97174.06;;;12.11;53.47
22181;BME280;11256;50.830;12.834;2023-04-25T17:10:27;97173.69;;;12.04;52.86
22181;BME280;11256;50.830;12.834;2023-04-25T17:15:27;97185.63;;;12.03;52.64
22181;BME280;11256;50.830;12.834;2023-04-25T17:20:28;97192.25;;;11.97;51.98
22181;BME280;11256;50.830;12.834;2023-04-25T17:25:28;97174.97;;;11.79;52.21
22181;BME280;11256;50.830;12.834;2023-04-25T17:30:29;97210.97;;;11.85;51.61
22181;BME280;11256;50.830;12.834;2023-04-25T17:35:29;97205.13;;;11.78;52.11
22181;BME280;11256;50.830;12.834;2023-04-25T17:40:30;97209.03;;;11.72;51.55
22181;BME280;11256;50.830;12.834;2023-04-25T17:45:31;97218.88;;;11.68;51.17
22181;BME280;11256;50.830;12.834;2023-04-25T17:50:34;97214.50;;;11.53;50.72
22181;BME280;11256;50.830;12.834;2023-04-25T17:55:34;97222.09;;;11.51;51.11
22181;BME280;11256;50.830;12.834;2023-04-25T18:00:34;97225.00;;;11.41;50.16
22181;BME280;11256;50.830;12.834;2023-04-25T18:05:35;97233.53;;;11.35;50.68
22181;BME280;11256;50.830;12.834;2023-04-25T18:10:36;97239.03;;;11.30;50.40
22181;BME280;11256;50.830;12.834;2023-04-25T18:15:37;97233.84;;;11.15;50.36
22181;BME280;11256;50.830;12.834;2023-04-25T18:20:38;97237.72;;;11.09;50.12
22181;BME280;11256;50.830;12.834;2023-04-25T18:25:38;97253.22;;;11.08;50.40
22181;BME280;11256;50.830;12.834;2023-04-25T18:30:39;97232.59;;;10.89;50.90
22181;BME280;11256;50.830;12.834;2023-04-25T18:35:39;97266.69;;;10.95;50.42
22181;BME280;11256;50.830;12.834;2023-04-25T18:40:39;97277.34;;;10.86;50.69
22181;BME280;11256;50.830;12.834;2023-04-25T18:45:40;97284.78;;;10.81;50.63
22181;BME280;11256;50.830;12.834;2023-04-25T18:50:41;97289.81;;;10.69;50.64
22181;BME280;11256;50.830;12.834;2023-04-25T18:55:43;97288.28;;;10.63;50.84
22181;BME280;11256;50.830;12.834;2023-04-25T19:00:43;97297.03;;;10.55;51.27
22181;BME280;11256;50.830;12.834;2023-04-25T19:05:43;97294.97;;;10.47;50.88
22181;BME280;11256;50.830;12.834;2023-04-25T19:10:43;97305.31;;;10.40;51.01
22181;BME280;11256;50.830;12.834;2023-04-25T19:15:45;97314.97;;;10.27;50.82
22181;BME280;11256;50.830;12.834;2023-04-25T19:20:46;97299.97;;;10.11;50.57
22181;BME280;11256;50.830;12.834;2023-04-25T19:25:46;97315.16;;;10.07;50.92
22181;BME280;11256;50.830;12.834;2023-04-25T19:30:47;97314.94;;;9.99;50.83
22181;BME280;11256;50.830;12.834;2023-04-25T19:35:48;97313.16;;;9.89;50.92
22181;BME280;11256;50.830;12.834;2023-04-25T19:40:48;97320.53;;;9.79;50.71
22181;BME280;11256;50.830;12.834;2023-04-25T19:45:48;97327.69;;;9.70;51.02
22181;BME280;11256;50.830;12.834;2023-04-25T19:50:49;97323.47;;;9.54;51.01
22181;BME280;11256;50.830;12.834;2023-04-25T19:55:50;97340.78;;;9.53;51.20
22181;BME280;11256;50.830;12.834;2023-04-25T20:00:50;97335.97;;;9.45;51.21
22181;BME280;11256;50.830;12.834;2023-04-25T20:05:51;97333.38;;;9.30;51.17
22181;BME280;11256;50.830;12.834;2023-04-25T20:10:52;97338.81;;;9.25;51.14
22181;BME280;11256;50.830;12.834;2023-04-25T20:15:52;97337.78;;;9.21;51.38
22181;BME280;11256;50.830;12.834;2023-04-25T20:20:53;97338.38;;;9.08;51.49
22181;BME280;11256;50.830;12.834;2023-04-25T20:25:53;97352.44;;;9.10;51.28
22181;BME280;11256;50.830;12.834;2023-04-25T20:30:54;97348.44;;;9.02;51.61
22181;BME280;11256;50.830;12.834;2023-04-25T20:35:54;97341.44;;;8.96;51.54
22181;BME280;11256;50.830;12.834;2023-04-25T20:40:54;97345.78;;;8.92;51.49
22181;BME280;11256;50.830;12.834;2023-04-25T20:45:55;97349.84;;;8.85;51.53
22181;BME280;11256;50.830;12.834;2023-04-25T20:50:56;97336.94;;;8.77;51.31
22181;BME280;11256;50.830;12.834;2023-04-25T20:55:57;97354.75;;;8.78;51.32
22181;BME280;11256;50.830;12.834;2023-04-25T21:00:58;97347.78;;;8.67;51.70
22181;BME280;11256;50.830;12.834;2023-04-25T21:05:58;97364.25;;;8.65;51.62
22181;BME280;11256;50.830;12.834;2023-04-25T21:10:59;97369.94;;;8.64;51.44
22181;BME280;11256;50.830;12.834;2023-04-25T21:16:00;97371.00;;;8.68;51.71
22181;BME280;11256;50.830;12.834;2023-04-25T21:21:01;97368.84;;;8.60;52.18
22181;BME280;11256;50.830;12.834;2023-04-25T21:26:04;97372.13;;;8.52;52.41
22181;BME280;11256;50.830;12.834;2023-04-25T21:31:05;97387.25;;;8.58;52.65
22181;BME280;11256;50.830;12.834;2023-04-25T21:36:05;97373.75;;;8.53;52.88
22181;BME280;11256;50.830;12.834;2023-04-25T21:41:06;97377.00;;;8.50;53.13
22181;BME280;11256;50.830;12.834;2023-04-25T21:46:07;97374.59;;;8.43;53.22
22181;BME280;11256;50.830;12.834;2023-04-25T21:51:07;97374.34;;;8.40;53.05
22181;BME280;11256;50.830;12.834;2023-04-25T21:56:08;97389.72;;;8.44;53.35
22181;BME280;11256;50.830;12.834;2023-04-25T22:01:08;97388.34;;;8.42;53.51
22181;BME280;11256;50.830;12.834;2023-04-25T22:06:09;97390.53;;;8.40;53.80
22181;BME280;11256;50.830;12.834;2023-04-25T22:11:09;97394.84;;;8.36;53.95
22181;BME280;11256;50.830;12.834;2023-04-25T22:16:11;97400.78;;;8.33;54.00
22181;BME280;11256;50.830;12.834;2023-04-25T22:21:11;97387.88;;;8.20;54.20
22181;BME280;11256;50.830;12.834;2023-04-25T22:26:12;97405.66;;;8.21;54.17
22181;BME280;11256;50.830;12.834;2023-04-25T22:31:12;97402.16;;;8.10;54.47
22181;BME280;11256;50.830;12.834;2023-04-25T22:36:13;97414.03;;;8.14;54.44
22181;BME280;11256;50.830;12.834;2023-04-25T22:41:13;97423.75;;;8.10;54.82
22181;BME280;11256;50.830;12.834;2023-04-25T22:46:19;97418.09;;;8.02;54.99
22181;BME280;11256;50.830;12.834;2023-04-25T22:51:19;97446.69;;;8.08;54.87
22181;BME280;11256;50.830;12.834;2023-04-25T22:56:19;97444.50;;;8.10;54.73
22181;BME280;11256;50.830;12.834;2023-04-25T23:01:20;97438.84;;;8.06;54.53
22181;BME280;11256;50.830;12.834;2023-04-25T23:06:20;97450.44;;;8.17;54.80
22181;BME280;11256;50.830;12.834;2023-04-25T23:11:20;97453.13;;;8.17;54.56
22181;BME280;11256;50.830;12.834;2023-04-25T23:16:22;97449.38;;;8.13;54.84
22181;BME280;11256;50.830;12.834;2023-04-25T23:21:23;97458.56;;;8.12;54.71
22181;BME280;11256;50.830;12.834;2023-04-25T23:26:23;97457.22;;;8.04;55.03
22181;BME280;11256;50.830;12.834;2023-04-25T23:31:23;97458.28;;;8.03;55.12
22181;BME280;11256;50.830;12.834;2023-04-25T23:36:24;97462.34;;;7.96;55.40
22181;BME280;11256;50.830;12.834;2023-04-25T23:41:26;97463.38;;;7.95;55.70
22181;BME280;11256;50.830;12.834;2023-04-25T23:46:26;97459.06;;;7.89;55.62
22181;BME280;11256;50.830;12.834;2023-04-25T23:51:27;97461.25;;;7.87;55.84
22181;BME280;11256;50.830;12.834;2023-04-25T23:56:28;97452.63;;;7.85;55.74
